Time;durP1;ratioP1;P1;durP2;ratioP2;P2;SDS_P1;SDS_P2;PMS_P1;PMS_P2;Temp;Humidity;BMP_temperature;BMP_pressure;BME280_temperature;BME280_humidity;BME280_pressure;Samples;Min_cycle;Max_cycle;Signal;HPM_P1;HPM_P2
2021/12/03 00:01:34;;;;;;;30.67;12.63;;;;;;;-0.43;100.00;96825.56;5058902;28;20053;-77
2021/12/03 00:04:43;;;;;;;31.20;12.63;;;;;;;-0.18;100.00;96839.66;5059266;28;20045;-86
2021/12/03 00:07:24;;;;;;;30.27;12.90;;;;;;;-0.17;100.00;96835.16;5038938;28;20060;-79
2021/12/03 00:10:05;;;;;;;33.50;13.88;;;;;;;-0.06;100.00;96839.41;5037346;28;20117;-80
2021/12/03 00:12:42;;;;;;;29.08;13.00;;;;;;;-0.04;100.00;96853.25;5050053;28;20465;-80
2021/12/03 00:15:18;;;;;;;29.02;13.52;;;;;;;-0.04;100.00;96856.72;5048487;28;20076;-83
2021/12/03 00:17:50;;;;;;;33.55;13.88;;;;;;;0.28;100.00;96880.38;5053416;28;20037;-83
2021/12/03 00:20:39;;;;;;;;;;;;;;;;;;;;;
2021/12/03 00:23:16;;;;;;;30.17;12.98;;;;;;;0.55;100.00;96882.72;5054822;28;20471;-80
2021/12/03 00:26:15;;;;;;;;;;;;;;;;;;;;;
2021/12/03 00:28:51;;;;;;;30.63;12.18;;;;;;;0.69;100.00;96902.41;5057485;28;20053;-78
2021/12/03 00:31:27;;;;;;;29.63;12.25;;;;;;;0.46;100.00;96887.81;5057630;28;20059;-80
2021/12/03 00:41:58;;;;;;;30.45;13.20;;;;;;;0.46;100.00;96895.00;4997109;28;20058;-81
2021/12/03 00:52:09;;;;;;;29.63;13.60;;;;;;;0.69;100.00;96952.22;5058836;28;20076;-80
2021/12/03 01:14:17;;;;;;;27.50;12.18;;;;;;;0.69;100.00;96961.00;1049871;26;20337;-80
2021/12/03 01:17:22;;;;;;;31.95;13.75;;;;;;;0.65;100.00;96964.47;5017841;28;20407;-82
2021/12/03 01:20:26;;;;;;;32.05;12.98;;;;;;;0.56;100.00;96973.00;5016551;28;20517;-78
2021/12/03 01:23:49;;;;;;;30.23;12.88;;;;;;;0.69;100.00;97000.94;5016199;28;20137;-80
2021/12/03 01:26:55;;;;;;;29.85;12.98;;;;;;;0.63;100.00;96980.69;5015119;28;20619;-78
2021/12/03 01:30:00;;;;;;;28.30;12.52;;;;;;;0.83;100.00;96993.19;5015734;28;20321;-78
2021/12/03 01:33:14;;;;;;;33.30;12.60;;;;;;;0.63;100.00;96973.53;5013814;28;20041;-78
2021/12/03 01:39:19;;;;;;;;;;;;;;;;;;;;;
2021/12/03 01:42:22;;;;;;;29.33;12.82;;;;;;;0.29;100.00;96956.47;5056641;28;20120;-78
2021/12/03 01:45:11;;;;;;;31.20;12.93;;;;;;;0.53;100.00;96989.50;5034221;28;20116;-79
2021/12/03 01:48:07;;;;;;;28.63;13.23;;;;;;;0.39;100.00;96966.31;5036954;28;20073;-81
2021/12/03 01:50:48;;;;;;;29.45;12.85;;;;;;;0.34;100.00;96951.16;5035430;28;20045;-77
2021/12/03 01:53:58;;;;;;;25.90;12.60;;;;;;;0.23;100.00;96960.22;5029900;28;20128;-81
2021/12/03 01:56:40;;;;;;;27.80;11.32;;;;;;;0.25;100.00;96963.41;5048746;28;20117;-76
2021/12/03 01:59:46;;;;;;;22.10;9.85;;;;;;;0.06;100.00;96954.34;5033206;28;20049;-80
2021/12/03 02:07:07;;;;;;;;;;;;;;;;;;;;;
2021/12/03 02:14:07;;;;;;;22.83;10.13;;;;;;;0.02;100.00;96979.06;5031455;28;20046;-78
2021/12/03 02:17:13;;;;;;;21.52;9.20;;;;;;;-0.33;100.00;96946.00;5010959;28;20053;-79
2021/12/03 02:19:44;;;;;;;20.17;9.70;;;;;;;-0.25;100.00;96971.28;5032689;28;20045;-81
2021/12/03 02:22:10;;;;;;;17.83;8.68;;;;;;;-0.35;100.00;96963.28;5034401;28;20053;-79
2021/12/03 02:24:39;;;;;;;21.98;10.07;;;;;;;-0.44;100.00;96962.22;5032656;28;20048;-80
2021/12/03 02:27:06;;;;;;;19.50;9.98;;;;;;;-0.58;100.00;96961.09;5033235;28;20548;-78
2021/12/03 02:29:33;;;;;;;18.90;8.70;;;;;;;-0.48;100.00;96979.72;5032409;28;20159;-79
2021/12/03 02:32:01;;;;;;;18.00;8.77;;;;;;;-0.63;100.00;96977.81;5034718;28;20425;-78
2021/12/03 02:34:29;;;;;;;20.98;8.77;;;;;;;-0.58;100.00;96985.81;5035289;28;20060;-79
2021/12/03 02:36:55;;;;;;;20.83;9.75;;;;;;;-0.68;100.00;96989.22;5036449;28;20057;-77
2021/12/03 02:39:23;;;;;;;25.40;9.73;;;;;;;-0.80;100.00;96969.25;5036977;28;20153;-80
2021/12/03 02:41:50;;;;;;;22.35;9.73;;;;;;;-0.81;100.00;96962.31;5059452;28;20139;-77
2021/12/03 02:44:18;;;;;;;18.75;9.15;;;;;;;-0.86;100.00;96965.75;5061342;28;20051;-81
2021/12/03 02:46:46;;;;;;;21.67;9.55;;;;;;;-0.90;100.00;96980.59;5081138;28;20160;-79
2021/12/03 02:49:15;;;;;;;23.75;9.80;;;;;;;-0.96;100.00;96971.03;5078150;28;20053;-79
2021/12/03 02:51:44;;;;;;;20.35;9.40;;;;;;;-0.86;100.00;96972.94;5079745;28;20052;-78
2021/12/03 02:54:13;;;;;;;21.55;9.25;;;;;;;-0.96;100.00;96986.97;5062760;28;20045;-81
2021/12/03 02:56:40;;;;;;;26.77;9.50;;;;;;;-0.85;100.00;96995.78;5062171;28;20084;-79
2021/12/03 02:59:07;;;;;;;20.85;9.73;;;;;;;-0.93;100.00;96972.38;5078906;28;20076;-78
2021/12/03 03:01:34;;;;;;;23.55;10.20;;;;;;;-0.99;100.00;96979.50;5061419;28;20053;-79
2021/12/03 03:04:04;;;;;;;18.25;9.27;;;;;;;-0.88;100.00;97001.63;5079183;28;20056;-79
2021/12/03 03:06:31;;;;;;;22.30;9.77;;;;;;;-1.09;100.00;96984.75;5079342;28;20056;-78
2021/12/03 03:08:58;;;;;;;27.20;10.40;;;;;;;-1.09;100.00;96976.78;5062319;28;20059;-80
2021/12/03 03:11:24;;;;;;;22.92;10.25;;;;;;;-1.07;100.00;96992.47;5061551;28;20094;-78
2021/12/03 03:13:55;;;;;;;26.30;12.13;;;;;;;-1.09;100.00;96989.28;5062146;28;20048;-79
2021/12/03 03:16:22;;;;;;;31.08;13.05;;;;;;;-0.99;100.00;97002.59;5079784;28;20632;-81
2021/12/03 03:18:48;;;;;;;34.20;14.55;;;;;;;-1.05;100.00;97001.78;5061461;28;20044;-79
2021/12/03 03:21:25;;;;;;;35.35;13.90;;;;;;;-1.14;100.00;96999.88;5062313;28;20180;-79
2021/12/03 03:23:52;;;;;;;24.90;10.23;;;;;;;-1.20;100.00;96979.63;5080326;28;20055;-80
2021/12/03 03:26:19;;;;;;;30.73;13.27;;;;;;;-1.04;100.00;97019.31;5052078;28;20068;-81
2021/12/03 03:29:03;;;;;;;27.17;11.85;;;;;;;-1.27;100.00;96983.31;5055940;28;20109;-77
2021/12/03 03:31:45;;;;;;;28.27;12.38;;;;;;;-1.16;100.00;97000.09;5048926;28;20037;-78
2021/12/03 03:34:28;;;;;;;28.52;11.38;;;;;;;-1.32;100.00;96980.63;5059316;28;20400;-78
2021/12/03 03:37:10;;;;;;;27.92;11.23;;;;;;;-1.36;100.00;96984.84;5060203;28;20052;-79
2021/12/03 03:39:52;;;;;;;21.95;10.35;;;;;;;-1.35;100.00;96990.97;5058463;28;20498;-78
2021/12/03 03:42:43;;;;;;;23.73;9.60;;;;;;;-1.39;100.00;96988.00;5058705;28;20064;-78
2021/12/03 03:46:24;;;;;;;20.60;8.85;;;;;;;-1.11;100.00;97021.38;5010610;28;20030;-79
2021/12/03 03:49:44;;;;;;;21.35;8.50;;;;;;;-1.24;100.00;96987.31;5006925;28;20057;-79
2021/12/03 03:52:26;;;;;;;16.90;7.03;;;;;;;-1.24;100.00;96989.19;5001192;28;20057;-79
2021/12/03 03:55:45;;;;;;;19.50;8.27;;;;;;;-1.19;100.00;97008.59;5017359;28;20042;-78
2021/12/03 03:58:20;;;;;;;16.15;8.18;;;;;;;-1.24;100.00;96994.50;5031134;28;20046;-78
2021/12/03 04:02:11;;;;;;;;;;;;;;;;;;;;;
2021/12/03 04:04:20;;;;;;;17.00;8.00;;;;;;;-1.28;100.00;96994.19;5012409;28;20042;-79
2021/12/03 04:06:50;;;;;;;16.60;7.70;;;;;;;-1.18;100.00;97015.50;5001421;28;20190;-81
2021/12/03 04:09:18;;;;;;;20.08;8.85;;;;;;;-1.12;100.00;97014.47;5001204;28;20152;-80
2021/12/03 04:11:45;;;;;;;18.73;8.40;;;;;;;-1.11;100.00;97018.72;5003772;28;20092;-80
2021/12/03 04:14:16;;;;;;;16.45;8.50;;;;;;;-1.11;100.00;97029.34;5006037;28;20113;-79
2021/12/03 04:16:43;;;;;;;21.10;7.85;;;;;;;-1.17;100.00;97034.88;5042000;28;20065;-80
2021/12/03 04:19:10;;;;;;;15.63;7.72;;;;;;;-1.14;100.00;97039.69;5039688;28;20049;-80
2021/12/03 04:21:37;;;;;;;17.13;8.77;;;;;;;-1.15;100.00;97030.13;5057141;28;20057;-79
2021/12/03 04:24:04;;;;;;;17.17;8.27;;;;;;;-1.09;100.00;97043.19;5040465;28;20460;-79
2021/12/03 04:26:30;;;;;;;17.35;8.25;;;;;;;-1.14;100.00;97048.47;5057973;28;20048;-79
2021/12/03 04:28:57;;;;;;;14.95;7.90;;;;;;;-1.09;100.00;97040.53;5057033;28;20044;-79
2021/12/03 04:31:24;;;;;;;15.32;7.80;;;;;;;-1.12;100.00;97053.50;5039665;28;20045;-79
2021/12/03 04:33:51;;;;;;;22.27;9.10;;;;;;;-1.16;100.00;97055.09;5057438;28;20057;-80
2021/12/03 04:36:18;;;;;;;16.30;7.88;;;;;;;-1.15;100.00;97060.13;5057415;28;20049;-79
2021/12/03 04:38:45;;;;;;;20.20;8.52;;;;;;;-1.12;100.00;97053.50;5058339;28;20501;-81
2021/12/03 04:41:11;;;;;;;19.00;8.73;;;;;;;-1.13;100.00;97055.34;5057411;28;20049;-79
2021/12/03 04:43:38;;;;;;;15.35;8.05;;;;;;;-1.18;100.00;97068.59;5040831;28;20077;-82
2021/12/03 04:46:05;;;;;;;18.67;8.38;;;;;;;-1.20;100.00;97060.09;5057398;28;20106;-79
2021/12/03 04:48:32;;;;;;;17.60;8.52;;;;;;;-1.19;100.00;97072.31;5058387;28;20056;-80
2021/12/03 04:50:59;;;;;;;21.30;8.77;;;;;;;-1.23;100.00;97071.22;5040516;28;20056;-80
2021/12/03 04:53:26;;;;;;;16.30;8.52;;;;;;;-1.19;100.00;97074.16;5040237;28;20444;-79
2021/12/03 04:59:51;;;;;;;;;;;;;;;;;;;;;
2021/12/03 05:02:57;;;;;;;16.98;7.10;;;;;;;-1.26;100.00;97067.22;5058281;28;20036;-78
2021/12/03 05:10:35;;;;;;;;;;;;;;;;;;;;;
2021/12/03 05:13:36;;;;;;;19.20;6.28;;;;;;;-1.22;100.00;97083.44;5019608;22;19945;-81
2021/12/03 05:16:04;;;;;;;20.40;6.80;;;;;;;-1.31;100.00;97088.41;5017355;28;20053;-83
2021/12/03 05:18:32;;;;;;;18.45;6.93;;;;;;;-1.31;100.00;97114.97;5019321;28;20100;-83
2021/12/03 05:21:01;;;;;;;15.52;6.65;;;;;;;-1.28;100.00;97100.38;5018876;28;20059;-84
2021/12/03 05:23:29;;;;;;;16.25;6.55;;;;;;;-1.24;100.00;97111.31;5036171;28;20053;-83
2021/12/03 05:25:56;;;;;;;20.17;6.63;;;;;;;-1.23;100.00;97119.00;5035298;28;20050;-83
2021/12/03 05:28:24;;;;;;;18.65;6.68;;;;;;;-1.29;100.00;97115.50;5034787;28;20053;-83
2021/12/03 05:30:52;;;;;;;17.65;6.70;;;;;;;-1.28;100.00;97109.16;5035241;28;20076;-83
2021/12/03 05:33:20;;;;;;;11.05;5.80;;;;;;;-1.26;100.00;97130.94;5019163;28;20084;-83
2021/12/03 05:35:48;;;;;;;16.02;5.60;;;;;;;-1.31;100.00;97122.13;5019826;28;20383;-84
2021/12/03 05:38:15;;;;;;;18.98;6.55;;;;;;;-1.22;100.00;97122.47;5042764;28;20064;-84
2021/12/03 05:40:41;;;;;;;19.60;5.70;;;;;;;-1.30;100.00;97124.53;5026153;28;20041;-83
2021/12/03 05:43:08;;;;;;;12.35;5.70;;;;;;;-1.30;100.00;97129.84;5031221;28;20482;-83
2021/12/03 05:45:36;;;;;;;14.55;5.20;;;;;;;-1.26;100.00;97132.78;5031084;28;20053;-83
2021/12/03 05:48:04;;;;;;;13.63;4.80;;;;;;;-1.21;100.00;97137.34;5045080;28;20099;-84
2021/12/03 05:50:32;;;;;;;8.57;4.70;;;;;;;-1.24;100.00;97138.66;5055741;28;20057;-84
2021/12/03 05:53:00;;;;;;;13.23;4.35;;;;;;;-1.23;100.00;97140.25;5057951;28;20056;-83
2021/12/03 05:55:27;;;;;;;11.40;4.65;;;;;;;-1.31;100.00;97141.50;5057606;28;20052;-83
2021/12/03 05:57:54;;;;;;;9.98;4.13;;;;;;;-1.26;100.00;97141.56;5038231;28;20064;-83
2021/12/03 06:00:28;;;;;;;7.65;3.85;;;;;;;-1.29;100.00;97125.34;5038980;28;20057;-83
2021/12/03 06:02:55;;;;;;;13.50;4.18;;;;;;;-1.35;100.00;97132.44;5055766;28;20412;-82
2021/12/03 06:05:24;;;;;;;12.13;4.00;;;;;;;-1.29;100.00;97126.13;5056299;28;20049;-82
2021/12/03 06:07:51;;;;;;;9.60;3.78;;;;;;;-1.15;100.00;97145.09;5038748;28;20049;-82
2021/12/03 06:10:18;;;;;;;8.27;3.20;;;;;;;-1.09;100.00;97145.94;5041921;28;20068;-83
2021/12/03 06:12:46;;;;;;;9.35;3.63;;;;;;;-1.18;100.00;97148.25;5061199;28;20497;-83
2021/12/03 06:15:15;;;;;;;12.60;4.15;;;;;;;-1.29;100.00;97143.94;5039043;28;20044;-84
2021/12/03 06:17:42;;;;;;;12.48;4.03;;;;;;;-1.34;100.00;97138.53;5040246;28;20083;-83
2021/12/03 06:20:11;;;;;;;13.55;4.30;;;;;;;-1.31;100.00;97149.47;5057314;28;20048;-83
2021/12/03 06:22:39;;;;;;;11.05;3.63;;;;;;;-1.39;100.00;97141.16;5039629;28;20057;-83
2021/12/03 06:25:09;;;;;;;10.70;3.97;;;;;;;-1.57;100.00;97137.00;5047417;28;20049;-83
2021/12/03 06:37:31;;;;;;;10.77;4.10;;;;;;;-1.61;100.00;97178.34;4905681;29;20047;-82
2021/12/03 06:43:35;;;;;;;10.07;3.47;;;;;;;-1.68;100.00;97161.84;4871235;29;20060;-83
2021/12/03 06:47:43;;;;;;;;;;;;;;;;;;;;;
2021/12/03 06:51:42;;;;;;;;;;;;;;;;;;;;;
2021/12/03 06:57:45;;;;;;;7.35;2.60;;;;;;;-1.46;100.00;97183.81;4889476;29;20049;-83
2021/12/03 07:00:22;;;;;;;6.75;2.20;;;;;;;-1.54;100.00;97178.16;4896978;29;20041;-83
2021/12/03 07:03:01;;;;;;;7.07;2.67;;;;;;;-1.54;100.00;97170.19;4880047;29;20060;-83
2021/12/03 07:06:09;;;;;;;;;;;;;;;;;;;;;
2021/12/03 07:09:02;;;;;;;8.00;2.55;;;;;;;-1.45;100.00;97201.38;4984370;28;20051;-83
2021/12/03 07:11:55;;;;;;;7.30;2.40;;;;;;;-1.58;100.00;97172.56;4957551;28;20077;-82
2021/12/03 07:14:42;;;;;;;8.38;2.30;;;;;;;-1.42;100.00;97192.88;4979933;28;20066;-82
2021/12/03 07:17:34;;;;;;;4.40;1.73;;;;;;;-1.57;100.00;97174.13;4988353;28;20428;-81
2021/12/03 07:20:23;;;;;;;4.78;1.92;;;;;;;-1.33;100.00;97201.22;4972055;28;20503;-82
2021/12/03 07:23:22;;;;;;;6.65;1.95;;;;;;;-1.21;100.00;97209.03;4984407;28;20054;-83
2021/12/03 07:25:57;;;;;;;6.72;1.60;;;;;;;-1.29;100.00;97189.84;5018437;28;20049;-83
2021/12/03 07:28:43;;;;;;;;;;;;;;;;;;;;;
2021/12/03 07:35:54;;;;;;;4.70;1.90;;;;;;;-1.17;100.00;97187.03;5012415;28;20042;-81
2021/12/03 07:38:35;;;;;;;5.47;2.00;;;;;;;-1.16;100.00;97185.97;5007928;28;20057;-80
2021/12/03 07:41:03;;;;;;;4.68;1.75;;;;;;;-0.90;100.00;97209.06;5022125;28;20069;-82
2021/12/03 07:43:30;;;;;;;8.05;2.13;;;;;;;-0.85;100.00;97217.06;5022007;28;20073;-83
2021/12/03 07:45:57;;;;;;;3.30;1.48;;;;;;;-0.78;100.00;97216.88;5021824;28;20494;-80
2021/12/03 07:48:24;;;;;;;4.57;1.70;;;;;;;-0.70;100.00;97222.53;5021646;28;20555;-82
2021/12/03 07:50:52;;;;;;;2.83;1.60;;;;;;;-0.60;100.00;97239.63;5020987;28;20046;-81
2021/12/03 07:53:20;;;;;;;4.65;1.80;;;;;;;-0.58;100.00;97240.97;5002246;28;20050;-82
2021/12/03 07:55:49;;;;;;;4.72;1.83;;;;;;;-0.51;100.00;97240.75;5017576;28;20084;-82
2021/12/03 07:58:16;;;;;;;4.80;1.75;;;;;;;-0.32;100.00;97242.78;5021542;28;20050;-82
2021/12/03 08:00:45;;;;;;;4.57;1.77;;;;;;;-0.23;100.00;97248.41;5004050;28;20514;-82
2021/12/03 08:03:17;;;;;;;4.95;1.70;;;;;;;0.24;100.00;97229.81;5020155;28;20081;-82
2021/12/03 08:05:45;;;;;;;3.53;1.27;;;;;;;0.72;100.00;97242.00;5023456;28;20051;-83
2021/12/03 08:08:12;;;;;;;4.28;1.48;;;;;;;1.14;100.00;97231.97;5040080;28;20049;-83
2021/12/03 08:10:40;;;;;;;3.75;1.25;;;;;;;1.54;100.00;97236.53;5023998;28;20107;-82
2021/12/03 08:13:07;;;;;;;6.53;1.50;;;;;;;1.46;100.00;97237.88;5039652;28;20053;-82
2021/12/03 08:15:40;;;;;;;5.43;1.95;;;;;;;1.67;100.00;97255.50;5030759;28;20267;-82
2021/12/03 08:18:30;;;;;;;3.25;1.38;;;;;;;1.83;100.00;97238.38;5016567;28;20049;-84
2021/12/03 08:21:02;;;;;;;6.15;1.50;;;;;;;2.41;100.00;97252.16;5022172;28;20053;-83
2021/12/03 08:23:32;;;;;;;4.65;1.50;;;;;;;2.46;100.00;97250.28;5039127;28;20517;-84
2021/12/03 08:26:07;;;;;;;5.35;1.88;;;;;;;2.35;100.00;97255.91;5040771;28;20428;-85
2021/12/03 08:28:34;;;;;;;8.57;1.65;;;;;;;2.38;100.00;97250.81;5020685;28;20057;-86
2021/12/03 08:31:42;;;;;;;3.80;1.45;;;;;;;2.35;100.00;97264.72;5020244;28;20046;-86
2021/12/03 08:34:25;;;;;;;3.28;1.70;;;;;;;2.28;100.00;97256.19;5038532;28;20049;-81
2021/12/03 08:37:14;;;;;;;7.90;1.95;;;;;;;2.31;100.00;97238.84;5039295;28;20049;-81
2021/12/03 08:39:50;;;;;;;3.95;1.60;;;;;;;3.17;100.00;97248.06;5022184;28;20045;-81
2021/12/03 08:42:48;;;;;;;1.80;1.13;;;;;;;2.94;90.24;97259.41;5028273;28;20056;-81
2021/12/03 08:45:22;;;;;;;4.40;1.30;;;;;;;3.40;91.31;97254.63;5039220;28;20038;-82
2021/12/03 08:48:00;;;;;;;3.92;1.95;;;;;;;3.53;93.34;97266.56;5021488;28;20080;-81
2021/12/03 08:50:34;;;;;;;3.67;2.00;;;;;;;4.33;86.96;97247.13;5020302;28;20541;-79
2021/12/03 08:56:26;;;;;;;3.88;1.70;;;;;;;4.22;80.11;97258.22;5038528;28;20038;-82
2021/12/03 08:59:04;;;;;;;3.55;1.60;;;;;;;3.82;84.77;97258.59;5020884;28;20560;-82
2021/12/03 09:01:33;;;;;;;4.75;2.13;;;;;;;3.66;88.61;97256.03;5038492;28;20145;-82
2021/12/03 09:04:06;;;;;;;4.55;1.98;;;;;;;3.86;89.42;97243.56;5021673;28;20057;-81
2021/12/03 09:06:47;;;;;;;3.55;1.63;;;;;;;3.79;90.04;97276.00;5036921;28;20095;-82
2021/12/03 09:09:40;;;;;;;4.38;2.22;;;;;;;3.60;92.83;97259.03;4993836;28;20053;-82
2021/12/03 09:12:17;;;;;;;3.60;2.13;;;;;;;3.31;94.58;97253.59;5001125;28;20092;-82
2021/12/03 09:15:02;;;;;;;4.85;2.13;;;;;;;4.36;86.66;97267.19;4995096;28;20073;-79
2021/12/03 09:18:01;;;;;;;;;;;;;;;;;;;;;
2021/12/03 09:23:58;;;;;;;5.05;2.50;;;;;;;4.43;83.78;97273.00;5039951;28;20093;-82
2021/12/03 09:26:50;;;;;;;5.47;2.15;;;;;;;4.83;84.11;97275.22;5021370;28;20587;-81
2021/12/03 09:29:56;;;;;;;3.40;2.25;;;;;;;4.86;86.23;97273.84;5036729;28;20049;-82
2021/12/03 09:32:30;;;;;;;4.60;2.55;;;;;;;4.30;93.04;97287.06;5012432;28;20045;-82
2021/12/03 09:35:03;;;;;;;5.07;2.60;;;;;;;4.68;91.68;97267.34;5011282;28;20054;-82
2021/12/03 09:37:39;;;;;;;6.28;3.17;;;;;;;4.17;92.08;97260.94;5017486;28;20462;-83
2021/12/03 09:40:18;;;;;;;4.45;2.67;;;;;;;4.16;100.00;97281.56;5012451;28;20045;-82
2021/12/03 09:42:46;;;;;;;9.80;3.30;;;;;;;4.45;100.00;97260.13;5012852;28;20290;-83
2021/12/03 09:46:04;;;;;;;6.97;3.22;;;;;;;4.82;100.00;97273.63;5013336;28;20045;-82
2021/12/03 09:52:06;;;;;;;6.13;3.30;;;;;;;4.68;100.00;97248.59;5021609;28;20564;-83
2021/12/03 09:55:00;;;;;;;;;;;;;;;;;;;;;
2021/12/03 10:00:35;;;;;;;6.03;3.22;;;;;;;4.95;100.00;97237.28;4985117;28;20064;-83
2021/12/03 10:12:08;;;;;;;5.35;3.72;;;;;;;4.58;100.00;97242.53;4995800;28;20050;-82
2021/12/03 10:20:26;;;;;;;6.82;3.53;;;;;;;4.63;100.00;97239.81;5038275;28;20109;-82
2021/12/03 10:23:45;;;;;;;5.88;3.30;;;;;;;4.23;100.00;97244.50;5017956;28;20049;-80
2021/12/03 10:27:12;;;;;;;5.07;3.10;;;;;;;3.73;100.00;97239.66;5035095;28;20056;-80
2021/12/03 10:29:52;;;;;;;6.88;3.63;;;;;;;3.28;100.00;97234.66;5026619;28;20049;-81
2021/12/03 10:39:10;;;;;;;7.05;3.80;;;;;;;1.94;100.00;97233.84;5036477;28;20084;-77
2021/12/03 10:43:17;;;;;;;6.90;3.45;;;;;;;1.62;100.00;97230.66;4990076;28;20045;-80
2021/12/03 13:32:06;;;;;;;;;;;;;;;;;;;;;
2021/12/03 14:01:29;;;;;;;15.30;4.82;;;;;;;1.33;100.00;97137.06;4981849;28;20038;-76
2021/12/03 14:30:23;;;;;;;8.50;4.20;;;;;;;1.61;100.00;97149.03;4974930;28;20050;-78
2021/12/03 14:42:49;;;;;;;15.10;5.18;;;;;;;1.46;100.00;97143.72;4997740;28;20053;-79
2021/12/03 14:46:12;;;;;;;12.35;5.05;;;;;;;1.53;100.00;97144.25;4977744;28;20397;-80
2021/12/03 14:54:54;;;;;;;10.57;4.95;;;;;;;1.54;100.00;97145.84;4975908;28;20054;-77
2021/12/03 14:57:38;;;;;;;13.45;4.68;;;;;;;1.58;100.00;97137.03;4977767;28;20050;-77
2021/12/03 15:08:26;;;;;;;9.98;5.10;;;;;;;1.43;100.00;97121.06;4976442;28;20447;-78
2021/12/03 15:37:59;;;;;;;8.80;4.78;;;;;;;1.54;100.00;97105.84;4972678;28;20508;-80
2021/12/03 15:41:05;;;;;;;11.82;5.03;;;;;;;1.59;100.00;97113.84;4973619;28;20076;-79
2021/12/03 16:12:43;;;;;;;9.48;4.60;;;;;;;1.51;100.00;97103.72;5040102;28;20295;-80
2021/12/03 16:15:39;;;;;;;9.77;4.75;;;;;;;1.47;100.00;97086.66;5023923;28;20045;-79
2021/12/03 16:46:58;;;;;;;9.63;3.95;;;;;;;1.08;100.00;97071.28;5015264;28;20055;-79
2021/12/03 16:52:55;;;;;;;9.73;4.28;;;;;;;0.90;100.00;97065.69;5070634;22;20047;-79
2021/12/03 16:56:43;;;;;;;8.70;4.03;;;;;;;0.97;100.00;97066.19;5026017;28;20083;-80
2021/12/03 16:59:16;;;;;;;8.50;4.13;;;;;;;0.85;100.00;97034.47;5016017;28;20433;-81
2021/12/03 17:02:30;;;;;;;8.18;4.20;;;;;;;0.89;100.00;97016.09;5019360;28;20096;-80
2021/12/03 17:17:41;;;;;;;11.70;4.05;;;;;;;1.02;100.00;97044.88;5027488;28;20072;-79
2021/12/03 17:20:38;;;;;;;10.88;4.38;;;;;;;0.97;100.00;97052.88;5031758;28;20124;-83
2021/12/03 17:29:09;;;;;;;7.13;3.60;;;;;;;0.94;100.00;97040.88;5020243;28;20061;-79
2021/12/03 18:01:44;;;;;;;;;;;;;;;;;;;;;
2021/12/03 18:11:36;;;;;;;8.18;3.78;;;;;;;0.99;100.00;97018.75;5072942;28;20102;-80
2021/12/03 18:49:33;;;;;;;11.90;3.20;;;;;;;1.06;100.00;96942.78;4968208;28;20086;-80
2021/12/03 18:57:22;;;;;;;10.65;3.45;;;;;;;1.05;100.00;96927.91;4974677;28;20058;-79
2021/12/03 19:00:15;;;;;;;9.20;2.95;;;;;;;1.03;100.00;96924.69;4976411;28;20090;-78
2021/12/03 19:03:03;;;;;;;9.32;3.00;;;;;;;1.22;100.00;96933.69;4970642;28;20058;-79
2021/12/03 19:08:54;;;;;;;8.23;3.17;;;;;;;1.12;100.00;96891.09;4990740;28;20724;-80
2021/12/03 19:12:09;;;;;;;10.23;3.53;;;;;;;1.15;100.00;96889.75;5053237;28;20574;-81
2021/12/03 19:14:20;;;;;;;8.00;2.88;;;;;;;1.15;100.00;96903.88;5044089;28;20558;-80
2021/12/03 19:16:57;;;;;;;7.95;2.55;;;;;;;1.19;100.00;96890.78;5037365;28;20042;-82
2021/12/03 19:19:35;;;;;;;6.72;2.72;;;;;;;1.18;100.00;96881.22;5042284;28;20132;-82
2021/12/03 19:22:04;;;;;;;9.15;2.42;;;;;;;1.16;100.00;96868.13;5079416;28;20057;-80
2021/12/03 19:24:35;;;;;;;7.43;2.78;;;;;;;1.24;100.00;96859.56;5055866;28;20057;-79
2021/12/03 19:27:07;;;;;;;5.72;2.70;;;;;;;1.11;100.00;96843.41;5057839;28;20068;-81
2021/12/03 19:29:42;;;;;;;7.45;2.75;;;;;;;1.24;100.00;96856.09;5057891;28;20044;-80
2021/12/03 19:32:19;;;;;;;9.32;2.95;;;;;;;1.21;100.00;96846.00;5059893;28;20053;-80
2021/12/03 19:35:00;;;;;;;7.32;2.80;;;;;;;1.20;100.00;96845.22;5059603;28;20060;-80
2021/12/03 19:37:53;;;;;;;;;;;;;;;;;;;;;
2021/12/03 19:40:34;;;;;;;7.60;2.70;;;;;;;1.18;100.00;96825.22;5059132;28;20059;-81
2021/12/03 19:43:17;;;;;;;7.28;2.53;;;;;;;1.32;100.00;96842.19;5058131;28;20049;-79
2021/12/03 19:46:07;;;;;;;8.43;2.75;;;;;;;1.24;100.00;96830.25;5058303;28;20079;-78
2021/12/03 19:51:28;;;;;;;10.68;2.50;;;;;;;1.27;100.00;96812.91;5059828;28;20083;-81
2021/12/03 19:54:05;;;;;;;10.13;2.63;;;;;;;1.20;100.00;96807.09;5065553;28;20549;-80
2021/12/03 19:56:38;;;;;;;10.35;3.22;;;;;;;1.22;100.00;96800.41;5059435;28;20102;-79
2021/12/03 19:59:17;;;;;;;7.15;2.80;;;;;;;1.20;100.00;96791.09;5060508;28;20045;-81
2021/12/03 20:02:47;;;;;;;8.02;2.47;;;;;;;1.25;100.00;96807.06;5064668;28;20044;-79
2021/12/03 20:05:47;;;;;;;7.80;3.08;;;;;;;1.41;100.00;96813.09;5062176;28;20073;-78
2021/12/03 20:09:00;;;;;;;10.55;2.45;;;;;;;1.33;100.00;96795.81;5082804;28;20136;-80
2021/12/03 20:12:14;;;;;;;7.82;2.83;;;;;;;1.38;100.00;96806.44;5066478;28;20106;-79
2021/12/03 20:18:44;;;;;;;8.75;2.78;;;;;;;1.44;100.00;96818.69;4938745;22;20177;-79
2021/12/03 20:21:12;;;;;;;9.32;3.03;;;;;;;1.46;100.00;96810.41;5023999;28;20061;-79
2021/12/03 20:23:48;;;;;;;9.73;3.13;;;;;;;1.43;100.00;96810.94;5044986;28;20440;-78
2021/12/03 20:31:47;;;;;;;6.30;2.65;;;;;;;1.36;100.00;96819.28;5024662;28;20533;-79
2021/12/03 20:34:47;;;;;;;9.88;3.45;;;;;;;1.43;100.00;96800.28;5040435;28;20126;-79
2021/12/03 20:37:18;;;;;;;9.27;2.95;;;;;;;1.36;100.00;96789.94;5027993;28;20115;-79
2021/12/03 20:39:46;;;;;;;6.05;2.33;;;;;;;1.35;100.00;96793.66;5029489;28;20049;-79
2021/12/03 20:42:24;;;;;;;6.70;2.72;;;;;;;1.37;100.00;96796.84;5019746;28;20094;-79
2021/12/03 20:45:09;;;;;;;9.70;2.90;;;;;;;1.33;100.00;96795.81;4995011;28;20054;-79
2021/12/03 21:09:56;;;;;;;6.57;2.30;;;;;;;1.55;100.00;96776.75;5018007;28;20107;-77
2021/12/03 21:12:40;;;;;;;6.38;2.38;;;;;;;1.53;100.00;96761.00;4998867;28;20053;-78
2021/12/03 21:15:17;;;;;;;7.13;2.45;;;;;;;1.60;100.00;96774.81;4997251;28;20072;-78
2021/12/03 21:20:29;;;;;;;9.10;2.20;;;;;;;1.65;100.00;96760.66;5013481;28;20057;-79
2021/12/03 21:23:00;;;;;;;5.05;2.38;;;;;;;1.70;100.00;96753.41;5011346;28;20697;-79
2021/12/03 21:25:37;;;;;;;10.07;2.72;;;;;;;1.69;100.00;96751.03;4994616;28;20108;-79
2021/12/03 21:31:19;;;;;;;9.25;2.25;;;;;;;1.79;100.00;96753.59;5012474;28;20065;-79
2021/12/03 21:37:59;;;;;;;4.55;2.10;;;;;;;1.79;100.00;96745.59;5008693;28;20546;-79
2021/12/03 21:39:18;;;;;;;4.05;2.10;;;;;;;1.88;100.00;96735.91;5013590;28;20049;-79
2021/12/03 21:41:45;;;;;;;6.85;2.35;;;;;;;1.93;100.00;96738.53;4995302;28;20054;-79
2021/12/03 21:44:12;;;;;;;7.28;2.08;;;;;;;1.91;100.00;96730.00;5011237;28;20425;-79
2021/12/03 21:46:41;;;;;;;6.43;2.05;;;;;;;1.88;100.00;96725.25;4994080;28;20054;-78
2021/12/03 21:49:11;;;;;;;5.35;2.20;;;;;;;1.96;100.00;96726.50;5012637;28;20696;-79
2021/12/03 21:51:40;;;;;;;7.50;2.17;;;;;;;1.96;100.00;96742.53;4993268;28;20403;-80
2021/12/03 21:54:09;;;;;;;9.77;1.77;;;;;;;1.96;100.00;96727.31;4993872;28;20691;-79
2021/12/03 21:56:36;;;;;;;7.88;2.20;;;;;;;1.94;100.00;96728.66;5001094;28;20080;-79
2021/12/03 21:59:03;;;;;;;7.53;2.20;;;;;;;1.95;100.00;96730.25;5031481;28;20053;-79
2021/12/03 22:01:31;;;;;;;4.18;1.90;;;;;;;1.99;100.00;96729.38;5023291;28;20025;-79
2021/12/03 22:03:57;;;;;;;7.53;2.10;;;;;;;1.84;100.00;96717.00;5018412;28;20051;-78
2021/12/03 22:06:29;;;;;;;6.75;2.30;;;;;;;1.83;100.00;96704.72;5032665;28;20140;-79
2021/12/03 22:08:57;;;;;;;5.25;1.85;;;;;;;1.80;100.00;96716.00;5014520;28;20049;-79
2021/12/03 22:11:24;;;;;;;5.25;2.17;;;;;;;1.82;100.00;96719.16;5033810;28;20060;-77
2021/12/03 22:13:52;;;;;;;4.40;2.10;;;;;;;1.75;100.00;96709.91;5030136;28;20099;-78
2021/12/03 22:16:19;;;;;;;7.80;2.05;;;;;;;1.74;100.00;96698.44;5012153;28;20057;-79
2021/12/03 22:18:48;;;;;;;7.30;2.00;;;;;;;1.71;100.00;96706.97;5032516;28;20053;-78
2021/12/03 22:21:17;;;;;;;8.57;2.17;;;;;;;1.73;100.00;96699.50;5011804;28;20053;-78
2021/12/03 22:27:57;;;;;;;6.95;2.13;;;;;;;1.78;100.00;96685.34;5053804;28;20049;-86
2021/12/03 22:30:42;;;;;;;;;;;;;;;1.86;100.00;96685.50;5033823;28;20041;-80
2021/12/03 22:33:53;;;;;;;;;;;;;;;;;;;;;
2021/12/03 22:40:19;;;;;;;;;;;;;;;;;;;;;
2021/12/03 22:43:32;;;;;;;5.43;2.40;;;;;;;1.81;100.00;96642.06;5033155;28;20056;-81